createdAt,value
2023-05-05T00:02:05.748Z,12.18
2023-05-05T00:05:10.057Z,11.90
2023-05-05T00:08:14.620Z,11.40
2023-05-05T00:11:18.736Z,11.05
2023-05-05T00:14:22.442Z,8.85
2023-05-05T00:17:26.910Z,13.05
2023-05-05T00:20:31.535Z,11.80
2023-05-05T00:23:35.961Z,10.65
2023-05-05T00:26:40.102Z,11.77
2023-05-05T00:29:44.106Z,12.13
2023-05-05T00:32:49.215Z,9.50
2023-05-05T00:35:53.396Z,11.45
2023-05-05T00:38:57.725Z,15.32
2023-05-05T00:42:04.502Z,9.98
2023-05-05T00:45:10.086Z,13.35
2023-05-05T00:48:14.503Z,13.93
2023-05-05T00:51:20.249Z,9.20
2023-05-05T00:54:24.269Z,12.13
2023-05-05T00:57:29.003Z,13.13
2023-05-05T01:00:33.344Z,11.48
2023-05-05T01:03:38.916Z,17.02
2023-05-05T01:07:03.909Z,14.25
2023-05-05T01:10:20.300Z,12.27
2023-05-05T01:13:41.438Z,13.90
2023-05-05T01:16:59.994Z,13.60
2023-05-05T01:20:52.446Z,14.90
2023-05-05T01:24:21.178Z,10.30
2023-05-05T01:28:05.163Z,14.00
2023-05-05T01:31:38.027Z,12.57
2023-05-05T01:34:49.413Z,11.13
2023-05-05T01:38:01.825Z,10.10
2023-05-05T01:41:13.503Z,15.15
2023-05-05T01:44:20.039Z,12.85
2023-05-05T01:47:24.871Z,10.23
2023-05-05T01:50:29.436Z,14.65
2023-05-05T01:53:35.467Z,14.25
2023-05-05T01:56:42.017Z,15.00
2023-05-05T01:59:46.489Z,16.65
2023-05-05T02:02:51.743Z,15.80
2023-05-05T02:05:58.152Z,13.15
2023-05-05T02:09:03.538Z,15.43
2023-05-05T02:12:08.880Z,12.07
2023-05-05T02:15:14.173Z,14.95
2023-05-05T02:18:18.787Z,11.50
2023-05-05T02:21:23.117Z,15.88
2023-05-05T02:24:27.405Z,12.32
2023-05-05T02:27:34.843Z,12.98
2023-05-05T02:30:39.714Z,13.23
2023-05-05T02:33:45.682Z,12.82
2023-05-05T02:36:52.592Z,13.52
2023-05-05T02:40:06.230Z,13.40
2023-05-05T02:43:13.769Z,11.95
2023-05-05T02:46:18.172Z,12.70
2023-05-05T02:49:22.234Z,15.13
2023-05-05T02:52:26.096Z,12.52
2023-05-05T02:55:39.091Z,12.05
2023-05-05T02:58:54.554Z,14.47
2023-05-05T03:02:24.489Z,14.85
2023-05-05T03:05:37.495Z,11.73
2023-05-05T03:09:15.735Z,11.98
2023-05-05T03:12:22.433Z,11.45
2023-05-05T03:15:34.149Z,11.13
2023-05-05T03:18:40.341Z,11.15
2023-05-05T03:21:44.661Z,12.20
2023-05-05T03:24:51.798Z,14.05
2023-05-05T03:27:56.081Z,11.52
2023-05-05T03:31:00.482Z,16.20
2023-05-05T03:34:04.420Z,14.48
2023-05-05T03:37:08.585Z,15.27
2023-05-05T03:40:13.258Z,14.18
2023-05-05T03:43:17.356Z,12.77
2023-05-05T03:46:21.595Z,12.75
2023-05-05T03:49:25.796Z,12.25
2023-05-05T03:52:30.210Z,15.15
2023-05-05T03:55:34.364Z,12.05
2023-05-05T03:58:38.361Z,14.68
2023-05-05T04:01:42.191Z,15.10
2023-05-05T04:04:46.441Z,11.57
2023-05-05T04:07:50.797Z,14.73
2023-05-05T04:10:55.181Z,13.10
2023-05-05T04:13:59.274Z,12.27
2023-05-05T04:17:04.028Z,11.75
2023-05-05T04:20:09.291Z,13.52
2023-05-05T04:23:14.112Z,15.18
2023-05-05T04:26:18.391Z,11.85
2023-05-05T04:29:22.598Z,10.00
2023-05-05T04:32:27.122Z,13.02
2023-05-05T04:35:31.377Z,14.05
2023-05-05T04:38:35.696Z,11.65
2023-05-05T04:41:39.588Z,13.45
2023-05-05T04:44:43.691Z,13.02
2023-05-05T04:47:47.832Z,14.30
2023-05-05T04:50:52.007Z,16.23
2023-05-05T04:53:56.386Z,14.65
2023-05-05T04:57:00.426Z,16.33
2023-05-05T05:00:05.421Z,15.27
2023-05-05T05:03:10.646Z,18.52
2023-05-05T05:06:14.842Z,11.63
2023-05-05T05:09:19.423Z,15.27
2023-05-05T05:12:23.585Z,20.88
2023-05-05T05:15:27.701Z,15.55
2023-05-05T05:18:31.896Z,13.25
2023-05-05T05:21:36.261Z,14.05
2023-05-05T05:24:40.392Z,15.40
2023-05-05T05:27:44.768Z,20.27
2023-05-05T05:30:52.035Z,15.48
2023-05-05T05:33:56.409Z,13.43
2023-05-05T05:37:01.215Z,15.73
2023-05-05T05:40:06.537Z,16.27
2023-05-05T05:43:10.560Z,16.15
2023-05-05T05:46:15.186Z,13.70
2023-05-05T05:49:19.470Z,17.17
2023-05-05T05:52:23.693Z,13.70
2023-05-05T05:55:27.893Z,15.13
2023-05-05T05:58:31.969Z,16.90
2023-05-05T06:01:36.782Z,13.95
2023-05-05T06:04:40.971Z,16.05
2023-05-05T06:07:45.305Z,17.05
2023-05-05T06:10:49.565Z,17.23
2023-05-05T06:13:53.559Z,18.65
2023-05-05T06:16:57.714Z,11.63
2023-05-05T06:20:02.126Z,19.08
2023-05-05T06:23:06.660Z,21.30
2023-05-05T06:26:10.775Z,15.77
2023-05-05T06:29:14.978Z,12.05
2023-05-05T06:32:20.353Z,14.18
2023-05-05T06:35:24.756Z,20.90
2023-05-05T06:38:28.609Z,14.65
2023-05-05T06:41:32.810Z,13.35
2023-05-05T06:44:37.105Z,16.70
2023-05-05T06:47:42.408Z,11.18
2023-05-05T06:50:46.577Z,13.05
2023-05-05T06:53:51.240Z,9.65
2023-05-05T06:56:55.052Z,14.07
2023-05-05T06:59:59.843Z,15.65
2023-05-05T07:03:03.849Z,15.63
2023-05-05T07:06:07.851Z,15.00
2023-05-05T07:09:12.611Z,15.38
2023-05-05T07:12:16.990Z,10.40
2023-05-05T07:15:28.678Z,11.68
2023-05-05T07:18:33.520Z,13.10
2023-05-05T07:21:39.634Z,15.05
2023-05-05T07:24:43.776Z,11.15
2023-05-05T07:27:47.959Z,7.78
2023-05-05T07:30:52.097Z,12.73
2023-05-05T07:33:55.766Z,8.85
2023-05-05T07:37:00.193Z,11.85
2023-05-05T07:40:04.905Z,10.75
2023-05-05T07:43:09.127Z,11.20
2023-05-05T07:46:13.816Z,17.08
2023-05-05T07:49:18.221Z,10.57
2023-05-05T07:52:33.145Z,11.70
2023-05-05T07:58:50.406Z,10.88
2023-05-05T08:01:55.101Z,15.63
2023-05-05T08:04:59.123Z,10.60
2023-05-05T08:08:03.710Z,11.43
2023-05-05T08:11:07.952Z,10.82
2023-05-05T08:14:12.001Z,15.48
2023-05-05T08:17:18.938Z,10.85
2023-05-05T08:20:28.202Z,10.88
2023-05-05T08:23:33.628Z,7.47
2023-05-05T08:26:37.921Z,10.80
2023-05-05T08:29:42.102Z,7.55
2023-05-05T08:32:46.945Z,13.63
2023-05-05T08:35:51.111Z,11.50
2023-05-05T08:38:55.399Z,11.30
2023-05-05T08:41:59.706Z,9.38
2023-05-05T08:45:04.319Z,10.48
2023-05-05T08:48:08.750Z,8.23
2023-05-05T08:51:20.079Z,14.93
2023-05-05T08:54:27.683Z,7.13
2023-05-05T08:57:40.994Z,12.02
2023-05-05T09:00:46.012Z,10.10
2023-05-05T09:03:50.614Z,10.20
2023-05-05T09:06:58.316Z,11.00
2023-05-05T09:10:05.022Z,10.85
2023-05-05T09:13:09.600Z,10.15
2023-05-05T09:16:13.939Z,9.30
2023-05-05T09:19:17.986Z,8.45
2023-05-05T09:22:33.371Z,12.80
2023-05-05T09:25:37.886Z,13.05
2023-05-05T09:28:51.750Z,6.65
2023-05-05T09:32:08.408Z,8.10
2023-05-05T09:35:13.964Z,10.27
2023-05-05T09:38:19.437Z,14.02
2023-05-05T09:41:37.813Z,9.80
2023-05-05T09:44:42.272Z,8.88
2023-05-05T09:47:47.565Z,8.27
2023-05-05T09:50:52.457Z,7.03
2023-05-05T09:53:57.241Z,9.35
2023-05-05T09:57:01.429Z,5.97
2023-05-05T10:00:06.692Z,10.02
2023-05-05T10:03:10.750Z,6.50
2023-05-05T10:06:14.811Z,8.57
2023-05-05T10:09:18.880Z,6.30
2023-05-05T10:12:25.242Z,8.10
2023-05-05T10:15:29.031Z,7.63
2023-05-05T10:18:36.744Z,6.65
2023-05-05T10:21:46.447Z,6.10
2023-05-05T10:24:58.054Z,7.50
2023-05-05T10:28:06.405Z,8.20
2023-05-05T10:31:26.582Z,5.80
2023-05-05T10:34:38.398Z,8.85
2023-05-05T10:37:44.649Z,6.40
2023-05-05T10:40:49.701Z,6.78
2023-05-05T10:43:58.748Z,7.38
2023-05-05T10:47:03.288Z,11.52
2023-05-05T10:50:31.418Z,10.27
2023-05-05T10:53:44.461Z,9.05
2023-05-05T10:56:49.333Z,11.73
2023-05-05T10:59:53.193Z,6.57
2023-05-05T11:03:16.126Z,6.93
2023-05-05T11:06:20.426Z,9.27
2023-05-05T11:09:28.687Z,8.43
2023-05-05T11:12:53.320Z,8.00
2023-05-05T11:15:59.115Z,6.63
2023-05-05T11:19:41.472Z,6.03
2023-05-05T11:23:04.031Z,9.85
2023-05-05T11:26:08.917Z,9.82
2023-05-05T11:29:12.875Z,6.63
2023-05-05T11:32:17.054Z,8.35
2023-05-05T11:35:21.907Z,11.38
2023-05-05T11:38:51.179Z,6.60
2023-05-05T11:42:10.393Z,5.90
2023-05-05T11:45:23.306Z,7.30
2023-05-05T11:48:27.472Z,7.63
2023-05-05T11:51:32.098Z,6.43
2023-05-05T11:54:42.106Z,5.55
2023-05-05T11:57:45.932Z,7.45
2023-05-05T12:00:50.124Z,8.20
2023-05-05T12:03:54.605Z,8.30
2023-05-05T12:07:01.563Z,5.88
2023-05-05T12:10:07.258Z,7.60
2023-05-05T12:13:19.285Z,5.25
2023-05-05T12:16:23.650Z,8.18
2023-05-05T12:19:30.346Z,10.20
2023-05-05T12:22:34.248Z,9.50
2023-05-05T12:25:39.677Z,10.70
2023-05-05T12:28:47.967Z,6.90
2023-05-05T12:31:51.994Z,10.55
2023-05-05T12:34:59.349Z,11.18
2023-05-05T12:38:04.013Z,7.78
2023-05-05T12:41:08.087Z,6.15
2023-05-05T12:44:12.474Z,4.55
2023-05-05T12:47:32.895Z,8.75
2023-05-05T12:50:37.188Z,6.75
2023-05-05T12:53:41.117Z,7.30
2023-05-05T12:56:48.106Z,7.22
2023-05-05T12:59:53.389Z,7.35
2023-05-05T13:02:58.139Z,7.38
2023-05-05T13:06:18.190Z,10.32
2023-05-05T13:09:26.975Z,9.55
2023-05-05T13:12:31.126Z,8.13
2023-05-05T13:15:35.262Z,8.80
2023-05-05T13:18:49.630Z,8.18
2023-05-05T13:21:54.691Z,8.52
2023-05-05T13:24:58.728Z,8.15
2023-05-05T13:28:02.985Z,6.57
2023-05-05T13:31:07.839Z,7.38
2023-05-05T13:34:12.570Z,8.00
2023-05-05T13:37:16.388Z,11.63
2023-05-05T13:40:21.003Z,8.63
2023-05-05T13:43:25.246Z,7.05
2023-05-05T13:46:29.618Z,6.75
2023-05-05T13:49:35.373Z,6.97
2023-05-05T13:52:39.943Z,9.85
2023-05-05T13:55:44.678Z,5.00
2023-05-05T13:58:48.469Z,6.88
2023-05-05T14:01:52.773Z,8.88
2023-05-05T14:04:56.991Z,7.10
2023-05-05T14:08:01.305Z,11.45
2023-05-05T14:11:05.390Z,13.95
2023-05-05T14:14:09.552Z,10.40
2023-05-05T14:17:13.985Z,6.70
2023-05-05T14:20:18.264Z,7.20
2023-05-05T14:23:22.265Z,7.03
2023-05-05T14:26:26.338Z,11.25
2023-05-05T14:29:30.706Z,6.05
2023-05-05T14:32:34.742Z,6.90
2023-05-05T14:35:38.892Z,7.38
2023-05-05T14:38:42.938Z,7.75
2023-05-05T14:41:47.072Z,7.70
2023-05-05T14:44:51.071Z,8.77
2023-05-05T14:47:55.704Z,14.95
2023-05-05T14:50:59.824Z,10.77
2023-05-05T14:54:07.449Z,11.35
2023-05-05T14:57:15.942Z,5.63
2023-05-05T15:00:19.929Z,11.68
2023-05-05T15:03:24.595Z,12.90
2023-05-05T15:06:29.110Z,8.80
2023-05-05T15:09:33.345Z,8.68
2023-05-05T15:12:37.617Z,6.60
2023-05-05T15:15:41.613Z,5.75
2023-05-05T15:18:45.975Z,9.43
2023-05-05T15:21:53.214Z,6.32
2023-05-05T15:24:57.404Z,6.53
2023-05-05T15:28:02.007Z,8.82
2023-05-05T15:31:06.294Z,8.02
2023-05-05T15:34:09.973Z,7.18
2023-05-05T15:37:14.082Z,7.90
2023-05-05T15:40:18.413Z,6.53
2023-05-05T15:43:22.673Z,8.18
2023-05-05T15:46:26.885Z,6.28
2023-05-05T15:49:31.156Z,9.43
2023-05-05T15:52:35.590Z,9.35
2023-05-05T15:55:40.229Z,6.85
2023-05-05T15:58:44.374Z,10.85
2023-05-05T16:01:48.858Z,5.53
2023-05-05T16:04:53.550Z,5.50
2023-05-05T16:07:57.792Z,13.02
2023-05-05T16:11:02.035Z,6.65
2023-05-05T16:14:06.339Z,10.68
2023-05-05T16:17:10.244Z,13.60
2023-05-05T16:20:14.433Z,11.60
2023-05-05T16:23:18.461Z,13.30
2023-05-05T16:26:22.374Z,12.05
2023-05-05T16:29:26.651Z,8.73
2023-05-05T16:32:30.762Z,15.55
2023-05-05T16:35:36.170Z,10.25
2023-05-05T16:38:41.070Z,8.18
2023-05-05T16:41:45.152Z,10.57
2023-05-05T16:44:49.026Z,8.02
2023-05-05T16:47:55.409Z,10.65
2023-05-05T16:50:59.395Z,9.43
2023-05-05T16:54:03.926Z,8.73
2023-05-05T16:57:08.262Z,8.20
2023-05-05T17:00:12.708Z,17.13
2023-05-05T17:03:17.753Z,12.30
2023-05-05T17:06:21.649Z,10.90
2023-05-05T17:09:27.228Z,9.82
2023-05-05T17:12:31.358Z,11.70
2023-05-05T17:15:36.156Z,8.07
2023-05-05T17:18:40.090Z,12.48
2023-05-05T17:21:44.145Z,9.25
2023-05-05T17:24:48.018Z,10.40
2023-05-05T17:27:52.775Z,9.52
2023-05-05T17:30:59.476Z,12.98
2023-05-05T17:34:03.410Z,8.98
2023-05-05T17:37:07.891Z,7.00
2023-05-05T17:40:12.085Z,10.32
2023-05-05T17:43:16.460Z,7.97
2023-05-05T17:46:20.980Z,8.82
2023-05-05T17:49:25.482Z,9.93
2023-05-05T17:52:29.488Z,9.77
2023-05-05T17:55:33.748Z,10.48
2023-05-05T17:58:38.372Z,7.97
2023-05-05T18:01:42.727Z,13.23
2023-05-05T18:04:47.417Z,13.40
2023-05-05T18:07:51.761Z,9.60
2023-05-05T18:10:56.047Z,8.98
2023-05-05T18:14:00.333Z,8.07
2023-05-05T18:17:04.693Z,8.98
2023-05-05T18:20:10.211Z,8.88
2023-05-05T18:23:14.596Z,10.52
2023-05-05T18:26:18.580Z,17.20
2023-05-05T18:29:22.870Z,9.68
2023-05-05T18:32:27.572Z,10.00
2023-05-05T18:35:31.748Z,12.38
2023-05-05T18:38:35.733Z,8.38
2023-05-05T18:41:39.852Z,8.32
2023-05-05T18:44:44.373Z,9.02
2023-05-05T18:47:48.638Z,7.22
2023-05-05T18:50:52.880Z,8.15
2023-05-05T18:53:57.025Z,6.90
2023-05-05T18:57:01.297Z,8.35
2023-05-05T19:00:05.797Z,6.57
2023-05-05T19:03:10.159Z,9.38
2023-05-05T19:06:14.746Z,8.85
2023-05-05T19:09:19.071Z,8.52
2023-05-05T19:12:23.152Z,7.13
2023-05-05T19:15:27.936Z,8.90
2023-05-05T19:18:32.550Z,8.73
2023-05-05T19:21:36.667Z,11.55
2023-05-05T19:24:40.727Z,8.18
2023-05-05T19:27:44.654Z,7.10
2023-05-05T19:30:48.899Z,11.27
2023-05-05T19:33:57.465Z,9.50
2023-05-05T19:37:01.450Z,8.98
2023-05-05T19:40:06.304Z,8.75
2023-05-05T19:43:10.544Z,11.05
2023-05-05T19:46:14.606Z,8.60
2023-05-05T19:49:18.930Z,8.48
2023-05-05T19:52:23.227Z,10.10
2023-05-05T19:55:27.417Z,7.72
2023-05-05T19:58:54.083Z,8.07
2023-05-05T20:01:58.049Z,11.77
2023-05-05T20:05:02.164Z,15.32
2023-05-05T20:08:06.179Z,13.85
2023-05-05T20:11:10.406Z,13.27
2023-05-05T20:14:14.738Z,11.88
2023-05-05T20:17:20.506Z,11.02
2023-05-05T20:20:25.404Z,11.88
2023-05-05T20:23:29.491Z,11.43
2023-05-05T20:26:33.620Z,11.48
2023-05-05T20:29:37.913Z,10.80
2023-05-05T20:32:42.070Z,10.88
2023-05-05T20:35:47.187Z,10.32
2023-05-05T20:38:51.930Z,9.70
2023-05-05T20:41:56.126Z,11.35
2023-05-05T20:45:01.170Z,12.63
2023-05-05T20:48:07.410Z,11.80
2023-05-05T20:51:11.984Z,12.60
2023-05-05T20:54:16.197Z,10.95
2023-05-05T20:57:20.087Z,12.13
2023-05-05T21:00:25.466Z,10.45
2023-05-05T21:03:29.869Z,11.48
2023-05-05T21:06:34.292Z,11.80
2023-05-05T21:09:38.440Z,9.88
2023-05-05T21:12:42.494Z,11.98
2023-05-05T21:15:46.761Z,11.00
2023-05-05T21:18:50.783Z,11.43
2023-05-05T21:21:58.850Z,9.98
2023-05-05T21:25:15.332Z,9.43
2023-05-05T21:28:19.378Z,12.13
2023-05-05T21:31:23.731Z,11.98
2023-05-05T21:34:28.035Z,12.77
2023-05-05T21:37:32.228Z,10.55
2023-05-05T21:40:36.225Z,10.90
2023-05-05T21:43:40.283Z,14.63
2023-05-05T21:46:44.418Z,10.38
2023-05-05T21:49:48.808Z,14.32
2023-05-05T21:52:52.968Z,10.73
2023-05-05T21:55:57.412Z,12.02
2023-05-05T21:59:01.250Z,12.68
2023-05-05T22:02:05.511Z,11.90
2023-05-05T22:05:10.488Z,12.18
2023-05-05T22:08:14.516Z,11.63
2023-05-05T22:11:19.145Z,11.00
2023-05-05T22:14:23.228Z,11.23
2023-05-05T22:17:27.694Z,12.32
2023-05-05T22:20:32.257Z,12.65
2023-05-05T22:23:37.158Z,11.65
2023-05-05T22:26:43.171Z,12.60
2023-05-05T22:29:47.471Z,10.48
2023-05-05T22:32:51.401Z,12.48
2023-05-05T22:35:55.587Z,12.75
2023-05-05T22:38:59.812Z,14.05
2023-05-05T22:42:04.268Z,17.48
2023-05-05T22:45:09.601Z,13.23
2023-05-05T22:48:13.862Z,15.02
2023-05-05T22:51:17.847Z,13.32
2023-05-05T22:54:21.986Z,13.73
2023-05-05T22:57:26.150Z,17.00
2023-05-05T23:00:30.122Z,14.38
2023-05-05T23:03:34.155Z,14.63
2023-05-05T23:06:40.112Z,15.25
2023-05-05T23:09:44.128Z,15.75
2023-05-05T23:12:48.293Z,17.00
2023-05-05T23:15:52.345Z,14.88
2023-05-05T23:18:56.315Z,18.15
2023-05-05T23:22:00.895Z,17.25
2023-05-05T23:25:05.288Z,14.68
2023-05-05T23:28:09.910Z,14.88
2023-05-05T23:31:13.777Z,14.48
2023-05-05T23:34:17.981Z,15.60
2023-05-05T23:37:23.011Z,17.38
2023-05-05T23:40:26.892Z,15.50
2023-05-05T23:43:31.562Z,16.65
2023-05-05T23:46:35.726Z,14.90
2023-05-05T23:49:39.949Z,13.32
2023-05-05T23:52:44.303Z,16.30
2023-05-05T23:55:48.407Z,14.88
2023-05-05T23:58:53.099Z,14.95
